Time;durP1;ratioP1;P1;durP2;ratioP2;P2;SDS_P1;SDS_P2;PMS_P1;PMS_P2;Temp;Humidity;BMP_temperature;BMP_pressure;BME280_temperature;BME280_humidity;BME280_pressure;Samples;Min_cycle;Max_cycle;Signal;HPM_P1;HPM_P2
2023/05/08 00:00:37;;;;;;;4.03;2.38;;;;;;;;;;5014872;28;20026;-55
2023/05/08 00:03:03;;;;;;;2.03;1.92;;;;;;;;;;5014841;28;20036;-55
2023/05/08 00:05:28;;;;;;;2.22;2.13;;;;;;;;;;5014845;28;20021;-55
2023/05/08 00:08:00;;;;;;;2.40;2.20;;;;;;;;;;5013970;28;20518;-55
2023/05/08 00:10:25;;;;;;;2.38;2.20;;;;;;;;;;5014605;28;20446;-55
2023/05/08 00:12:50;;;;;;;2.67;2.20;;;;;;;;;;4996846;28;20113;-55
2023/05/08 00:15:16;;;;;;;2.17;2.08;;;;;;;;;;4996933;28;20072;-55
2023/05/08 00:17:43;;;;;;;2.10;2.00;;;;;;;;;;5014535;28;20026;-55
2023/05/08 00:20:09;;;;;;;1.95;1.85;;;;;;;;;;5014740;28;20053;-55
2023/05/08 00:22:34;;;;;;;2.03;1.92;;;;;;;;;;5014654;28;20393;-55
2023/05/08 00:24:59;;;;;;;2.45;1.80;;;;;;;;;;5014453;28;20088;-55
2023/05/08 00:27:25;;;;;;;1.85;1.75;;;;;;;;;;5014367;28;20057;-55
2023/05/08 00:29:50;;;;;;;2.13;2.03;;;;;;;;;;4996661;28;20026;-55
2023/05/08 00:32:16;;;;;;;2.20;2.10;;;;;;;;;;4996448;28;20020;-55
2023/05/08 00:34:41;;;;;;;3.33;2.20;;;;;;;;;;4996664;28;20026;-55
2023/05/08 00:37:07;;;;;;;2.88;2.22;;;;;;;;;;5014228;28;20487;-55
2023/05/08 00:39:32;;;;;;;2.25;2.15;;;;;;;;;;4996679;28;20449;-55
2023/05/08 00:41:57;;;;;;;2.80;2.60;;;;;;;;;;4996859;28;20453;-55
2023/05/08 00:44:23;;;;;;;2.78;2.60;;;;;;;;;;5014092;28;20360;-55
2023/05/08 00:46:49;;;;;;;3.08;2.80;;;;;;;;;;5014413;28;20400;-63
2023/05/08 00:49:16;;;;;;;3.03;2.70;;;;;;;;;;5014192;28;20108;-63
2023/05/08 00:51:45;;;;;;;2.83;2.60;;;;;;;;;;4996496;28;20065;-63
2023/05/08 00:54:11;;;;;;;3.13;2.40;;;;;;;;;;5013791;28;20033;-63
2023/05/08 00:56:37;;;;;;;3.30;3.03;;;;;;;;;;5013929;28;20026;-63
2023/05/08 00:59:06;;;;;;;2.38;2.28;;;;;;;;;;5014199;28;20037;-63
2023/05/08 01:01:32;;;;;;;2.80;2.60;;;;;;;;;;5014047;28;20060;-63
2023/05/08 01:03:57;;;;;;;2.80;2.60;;;;;;;;;;4996522;28;20175;-64
2023/05/08 01:06:23;;;;;;;2.42;2.28;;;;;;;;;;4996275;28;20108;-63
2023/05/08 01:08:48;;;;;;;2.83;2.63;;;;;;;;;;4996453;28;20092;-54
2023/05/08 01:11:22;;;;;;;2.67;2.53;;;;;;;;;;4996477;28;20038;-54
2023/05/08 01:14:06;;;;;;;2.47;2.30;;;;;;;;;;5014114;28;20084;-54
2023/05/08 01:16:36;;;;;;;2.35;2.25;;;;;;;;;;4996521;28;20038;-55
2023/05/08 01:19:01;;;;;;;2.35;2.25;;;;;;;;;;5014834;28;20459;-55
2023/05/08 01:21:27;;;;;;;5.85;2.10;;;;;;;;;;5000294;28;20038;-63
2023/05/08 01:23:57;;;;;;;1.90;1.80;;;;;;;;;;5017872;28;20022;-63
2023/05/08 01:26:22;;;;;;;2.20;2.10;;;;;;;;;;5000074;28;20057;-63
2023/05/08 01:28:54;;;;;;;1.90;1.80;;;;;;;;;;4999905;28;20076;-63
2023/05/08 01:31:38;;;;;;;1.90;1.80;;;;;;;;;;5017585;28;20489;-63
2023/05/08 01:34:10;;;;;;;2.28;1.98;;;;;;;;;;4999498;28;20073;-63
2023/05/08 01:36:45;;;;;;;2.30;1.80;;;;;;;;;;5017329;28;20084;-63
2023/05/08 01:39:18;;;;;;;1.95;1.85;;;;;;;;;;5017520;28;20026;-63
2023/05/08 01:41:59;;;;;;;2.00;1.90;;;;;;;;;;4999446;28;20084;-63
2023/05/08 01:44:27;;;;;;;1.83;1.67;;;;;;;;;;4999915;28;20080;-63
2023/05/08 01:46:53;;;;;;;3.78;1.73;;;;;;;;;;4999047;28;20037;-63
2023/05/08 01:49:26;;;;;;;1.90;1.80;;;;;;;;;;4983443;28;20037;-63
2023/05/08 01:52:14;;;;;;;2.00;1.80;;;;;;;;;;5017080;28;20034;-63
2023/05/08 01:54:48;;;;;;;2.13;1.98;;;;;;;;;;4999134;28;20038;-63
2023/05/08 01:57:16;;;;;;;2.15;2.05;;;;;;;;;;4999439;28;20129;-63
2023/05/08 01:59:43;;;;;;;2.38;2.28;;;;;;;;;;4999330;28;20499;-63
2023/05/08 02:02:10;;;;;;;2.08;1.98;;;;;;;;;;4999121;28;20033;-63
2023/05/08 02:04:36;;;;;;;2.22;1.98;;;;;;;;;;5016488;28;20036;-63
2023/05/08 02:07:07;;;;;;;2.10;2.00;;;;;;;;;;4999308;28;20034;-63
2023/05/08 02:09:33;;;;;;;2.53;2.33;;;;;;;;;;5016560;28;20073;-64
2023/05/08 02:11:59;;;;;;;2.20;2.10;;;;;;;;;;4999001;28;20091;-63
2023/05/08 02:14:25;;;;;;;2.22;2.10;;;;;;;;;;4998963;28;20018;-63
2023/05/08 02:16:53;;;;;;;2.13;2.03;;;;;;;;;;5016699;28;20022;-63
2023/05/08 02:19:20;;;;;;;2.55;2.35;;;;;;;;;;4998927;28;20022;-63
2023/05/08 02:21:47;;;;;;;2.25;2.05;;;;;;;;;;5016365;28;20110;-63
2023/05/08 02:24:13;;;;;;;2.10;2.00;;;;;;;;;;5016273;28;20058;-63
2023/05/08 02:26:38;;;;;;;2.65;2.17;;;;;;;;;;4998591;28;20034;-63
2023/05/08 02:29:04;;;;;;;2.58;2.33;;;;;;;;;;5014809;28;20047;-63
2023/05/08 02:31:29;;;;;;;2.30;2.13;;;;;;;;;;5015950;28;20032;-63
2023/05/08 02:33:56;;;;;;;2.85;2.00;;;;;;;;;;5016120;28;20088;-63
2023/05/08 02:36:24;;;;;;;2.50;2.30;;;;;;;;;;4998302;28;20081;-63
2023/05/08 02:38:53;;;;;;;2.50;2.20;;;;;;;;;;4998331;28;20030;-63
2023/05/08 02:41:20;;;;;;;2.58;2.15;;;;;;;;;;5011272;28;20040;-63
2023/05/08 02:43:45;;;;;;;2.40;2.20;;;;;;;;;;4979236;28;20023;-63
2023/05/08 02:46:19;;;;;;;3.47;2.25;;;;;;;;;;4978825;28;20041;-64
2023/05/08 02:49:11;;;;;;;2.22;2.03;;;;;;;;;;4979006;28;20031;-63
2023/05/08 02:51:55;;;;;;;4.13;2.30;;;;;;;;;;4976558;28;20137;-63
2023/05/08 02:54:42;;;;;;;2.63;2.40;;;;;;;;;;4978846;28;20081;-64
2023/05/08 02:57:14;;;;;;;2.58;2.35;;;;;;;;;;4978592;28;20033;-63
2023/05/08 02:59:43;;;;;;;2.60;2.40;;;;;;;;;;4979107;28;20030;-63
2023/05/08 03:02:12;;;;;;;2.72;2.63;;;;;;;;;;4978916;28;20032;-63
2023/05/08 03:04:48;;;;;;;2.50;2.40;;;;;;;;;;4978866;28;20499;-63
2023/05/08 03:07:14;;;;;;;2.60;2.40;;;;;;;;;;4978853;28;20368;-63
2023/05/08 03:09:44;;;;;;;2.70;2.50;;;;;;;;;;4996250;28;20026;-63
2023/05/08 03:12:11;;;;;;;2.45;2.30;;;;;;;;;;4996150;28;20053;-54
2023/05/08 03:14:42;;;;;;;2.83;2.63;;;;;;;;;;4996062;28;20030;-54
2023/05/08 03:17:09;;;;;;;3.17;2.72;;;;;;;;;;4996480;28;20356;-55
2023/05/08 03:19:35;;;;;;;2.65;2.45;;;;;;;;;;4978556;28;20026;-54
2023/05/08 03:22:05;;;;;;;3.05;2.60;;;;;;;;;;4978597;28;20483;-54
2023/05/08 03:24:32;;;;;;;2.70;2.50;;;;;;;;;;4996088;28;20049;-63
2023/05/08 03:26:58;;;;;;;2.83;2.63;;;;;;;;;;4978592;28;20068;-63
2023/05/08 03:29:24;;;;;;;3.50;3.10;;;;;;;;;;4995617;28;20361;-62
2023/05/08 03:31:50;;;;;;;3.28;2.83;;;;;;;;;;4978244;28;20041;-63
2023/05/08 03:34:16;;;;;;;5.15;4.65;;;;;;;;;;4977892;28;20121;-63
2023/05/08 03:36:41;;;;;;;5.38;4.05;;;;;;;;;;4995328;28;20026;-63
2023/05/08 03:39:08;;;;;;;3.53;3.30;;;;;;;;;;4979643;28;20137;-63
2023/05/08 03:41:33;;;;;;;3.53;2.97;;;;;;;;;;4996822;28;20114;-62
2023/05/08 03:44:01;;;;;;;3.20;2.90;;;;;;;;;;4997235;28;20373;-63
2023/05/08 03:46:26;;;;;;;3.10;2.80;;;;;;;;;;5014646;28;20026;-63
2023/05/08 03:48:52;;;;;;;2.70;2.50;;;;;;;;;;4997062;28;20032;-63
2023/05/08 03:51:18;;;;;;;2.70;2.30;;;;;;;;;;4997414;28;20061;-63
2023/05/08 03:53:43;;;;;;;2.78;2.58;;;;;;;;;;4997277;28;20417;-63
2023/05/08 03:56:09;;;;;;;4.68;2.13;;;;;;;;;;4997325;28;20388;-63
2023/05/08 03:58:43;;;;;;;2.95;2.60;;;;;;;;;;4997266;28;20088;-63
2023/05/08 04:01:30;;;;;;;2.20;2.10;;;;;;;;;;5014485;28;20142;-63
2023/05/08 04:04:05;;;;;;;2.60;2.40;;;;;;;;;;4997154;28;20025;-63
2023/05/08 04:06:36;;;;;;;2.63;2.42;;;;;;;;;;4997304;28;20034;-63
2023/05/08 04:09:22;;;;;;;2.70;2.50;;;;;;;;;;4996899;28;20080;-63
2023/05/08 04:11:59;;;;;;;3.22;2.67;;;;;;;;;;4996728;28;20445;-63
2023/05/08 04:14:26;;;;;;;3.47;2.60;;;;;;;;;;4996765;28;20030;-62
2023/05/08 04:16:55;;;;;;;2.83;2.10;;;;;;;;;;4996393;28;20116;-54
2023/05/08 04:19:26;;;;;;;2.90;2.33;;;;;;;;;;4996976;28;20041;-54
2023/05/08 04:21:54;;;;;;;3.28;2.88;;;;;;;;;;5014535;28;20036;-53
2023/05/08 04:24:22;;;;;;;3.03;2.72;;;;;;;;;;4980784;28;20110;-54
2023/05/08 04:26:47;;;;;;;2.60;2.40;;;;;;;;;;4997348;28;20439;-54
2023/05/08 04:29:14;;;;;;;2.67;2.47;;;;;;;;;;4996509;28;20018;-54
2023/05/08 04:31:41;;;;;;;3.38;2.70;;;;;;;;;;5013990;28;20058;-54
2023/05/08 04:34:08;;;;;;;3.75;2.88;;;;;;;;;;5014533;28;20030;-54
2023/05/08 04:36:34;;;;;;;3.17;2.88;;;;;;;;;;4996246;28;20045;-54
2023/05/08 04:39:01;;;;;;;7.13;5.07;;;;;;;;;;4996361;28;20018;-54
2023/05/08 04:41:27;;;;;;;11.52;6.57;;;;;;;;;;4994674;28;20398;-54
2023/05/08 04:43:53;;;;;;;5.50;4.93;;;;;;;;;;4995913;28;20444;-53
2023/05/08 04:46:18;;;;;;;3.38;2.72;;;;;;;;;;4995849;28;20034;-54
2023/05/08 04:48:44;;;;;;;4.35;3.65;;;;;;;;;;5012726;28;20029;-53
2023/05/08 04:51:09;;;;;;;3.63;3.30;;;;;;;;;;5013617;28;20116;-53
2023/05/08 04:53:35;;;;;;;3.05;2.85;;;;;;;;;;5016025;28;20026;-53
2023/05/08 04:56:01;;;;;;;5.32;2.85;;;;;;;;;;5017792;28;20056;-52
2023/05/08 04:58:27;;;;;;;3.95;2.83;;;;;;;;;;5000452;28;20468;-53
2023/05/08 05:00:53;;;;;;;2.78;2.58;;;;;;;;;;5018593;28;20056;-53
2023/05/08 05:03:19;;;;;;;3.75;2.75;;;;;;;;;;4984669;28;20065;-53
2023/05/08 05:05:45;;;;;;;4.25;3.38;;;;;;;;;;5000552;28;20054;-53
2023/05/08 05:08:11;;;;;;;3.13;2.80;;;;;;;;;;5000556;28;20029;-53
2023/05/08 05:10:39;;;;;;;2.53;2.33;;;;;;;;;;4999895;28;20026;-53
2023/05/08 05:13:05;;;;;;;3.00;2.80;;;;;;;;;;5000197;28;20034;-60
2023/05/08 05:15:31;;;;;;;4.28;3.88;;;;;;;;;;4999821;28;20022;-60
2023/05/08 05:17:57;;;;;;;2.80;2.60;;;;;;;;;;5017964;28;20026;-53
2023/05/08 05:20:23;;;;;;;4.20;3.90;;;;;;;;;;4999727;28;20480;-53
2023/05/08 05:22:48;;;;;;;3.38;2.90;;;;;;;;;;5017598;28;20075;-54
2023/05/08 05:25:13;;;;;;;4.35;3.58;;;;;;;;;;4999750;28;20014;-57
2023/05/08 05:27:39;;;;;;;3.40;3.10;;;;;;;;;;5017153;28;20108;-52
2023/05/08 05:30:06;;;;;;;3.10;2.90;;;;;;;;;;5000306;28;20460;-53
2023/05/08 05:32:32;;;;;;;3.20;3.00;;;;;;;;;;5000160;28;20022;-53
2023/05/08 05:34:57;;;;;;;2.97;2.78;;;;;;;;;;4999444;28;20037;-53
2023/05/08 05:37:23;;;;;;;3.00;2.80;;;;;;;;;;5000004;28;20022;-53
2023/05/08 05:39:48;;;;;;;4.97;3.45;;;;;;;;;;4999242;28;20050;-53
2023/05/08 05:42:14;;;;;;;3.50;3.20;;;;;;;;;;4999759;28;20026;-53
2023/05/08 05:44:43;;;;;;;3.33;3.03;;;;;;;;;;5015595;28;20472;-53
2023/05/08 05:47:09;;;;;;;2.72;2.53;;;;;;;;;;5017387;28;20471;-54
2023/05/08 05:49:35;;;;;;;4.78;3.55;;;;;;;;;;5015699;28;20036;-53
2023/05/08 05:52:01;;;;;;;5.95;4.38;;;;;;;;;;5017370;28;20030;-53
2023/05/08 05:54:26;;;;;;;2.92;2.72;;;;;;;;;;5016366;28;20033;-53
2023/05/08 05:56:51;;;;;;;7.40;5.65;;;;;;;;;;4997956;28;20022;-53
2023/05/08 05:59:17;;;;;;;6.03;4.15;;;;;;;;;;4998288;28;20121;-53
2023/05/08 06:01:42;;;;;;;3.40;3.20;;;;;;;;;;4998272;28;20053;-53
2023/05/08 06:04:09;;;;;;;2.78;2.58;;;;;;;;;;5015654;28;20030;-53
2023/05/08 06:06:34;;;;;;;2.67;2.47;;;;;;;;;;4997750;28;20124;-53
2023/05/08 06:08:59;;;;;;;3.28;3.08;;;;;;;;;;5015207;28;20761;-53
2023/05/08 06:11:25;;;;;;;3.00;2.67;;;;;;;;;;4996804;28;20030;-53
2023/05/08 06:13:50;;;;;;;2.50;2.17;;;;;;;;;;5014418;28;20500;-53
2023/05/08 06:16:15;;;;;;;2.95;2.75;;;;;;;;;;5014393;28;20041;-53
2023/05/08 06:18:41;;;;;;;3.38;3.08;;;;;;;;;;5015154;28;20432;-53
2023/05/08 06:21:06;;;;;;;3.38;3.08;;;;;;;;;;4997500;28;20037;-53
2023/05/08 06:23:31;;;;;;;3.17;2.72;;;;;;;;;;5015178;28;20116;-53
2023/05/08 06:25:57;;;;;;;3.03;2.80;;;;;;;;;;5016483;28;20030;-53
2023/05/08 06:28:24;;;;;;;3.22;3.03;;;;;;;;;;5016373;28;20483;-53
2023/05/08 06:30:50;;;;;;;2.95;2.75;;;;;;;;;;5016347;28;20129;-54
2023/05/08 06:33:15;;;;;;;6.80;5.13;;;;;;;;;;5016291;28;20065;-53
2023/05/08 06:35:40;;;;;;;3.35;3.05;;;;;;;;;;5015897;28;20058;-53
2023/05/08 06:38:06;;;;;;;4.13;3.83;;;;;;;;;;5015938;28;20487;-53
2023/05/08 06:40:31;;;;;;;4.95;4.45;;;;;;;;;;5015883;28;20050;-53
2023/05/08 06:42:56;;;;;;;2.92;2.72;;;;;;;;;;5016139;28;20018;-53
2023/05/08 06:45:22;;;;;;;7.43;3.17;;;;;;;;;;5015805;28;20022;-53
2023/05/08 06:47:47;;;;;;;3.80;2.47;;;;;;;;;;5015739;28;20108;-53
2023/05/08 06:50:12;;;;;;;4.38;2.50;;;;;;;;;;5015728;28;20030;-53
2023/05/08 06:52:38;;;;;;;6.70;2.70;;;;;;;;;;5016257;28;20026;-53
2023/05/08 06:55:03;;;;;;;2.50;2.30;;;;;;;;;;5015836;28;20034;-53
2023/05/08 06:57:29;;;;;;;2.97;2.78;;;;;;;;;;4998001;28;20033;-53
2023/05/08 06:59:55;;;;;;;3.35;2.50;;;;;;;;;;4997926;28;20032;-53
2023/05/08 07:02:20;;;;;;;3.60;3.17;;;;;;;;;;5015526;28;20030;-53
2023/05/08 07:04:46;;;;;;;2.63;2.42;;;;;;;;;;5015716;28;20468;-53
2023/05/08 07:07:12;;;;;;;4.85;4.45;;;;;;;;;;5015690;28;20034;-53
2023/05/08 07:09:38;;;;;;;5.13;2.70;;;;;;;;;;5015345;28;20479;-53
2023/05/08 07:12:04;;;;;;;3.30;3.10;;;;;;;;;;5015605;28;20034;-53
2023/05/08 07:14:29;;;;;;;2.83;2.28;;;;;;;;;;5015754;28;20034;-53
2023/05/08 07:16:54;;;;;;;3.60;2.70;;;;;;;;;;5015131;28;20025;-53
2023/05/08 07:19:20;;;;;;;2.83;2.22;;;;;;;;;;5015708;28;20083;-53
2023/05/08 07:21:46;;;;;;;4.28;4.07;;;;;;;;;;4997571;28;20373;-53
2023/05/08 07:24:11;;;;;;;2.90;2.70;;;;;;;;;;5015632;28;20041;-53
2023/05/08 07:26:36;;;;;;;2.50;2.30;;;;;;;;;;5015615;28;20026;-53
2023/05/08 07:29:02;;;;;;;3.88;3.63;;;;;;;;;;4997450;28;20579;-53
2023/05/08 07:31:27;;;;;;;2.67;2.58;;;;;;;;;;5014982;28;20041;-54
2023/05/08 07:33:52;;;;;;;2.88;2.50;;;;;;;;;;5015208;28;20026;-53
2023/05/08 07:36:18;;;;;;;2.70;2.47;;;;;;;;;;5014841;28;20076;-53
2023/05/08 07:38:43;;;;;;;3.40;2.42;;;;;;;;;;5014782;28;20044;-53
2023/05/08 07:41:09;;;;;;;3.08;2.80;;;;;;;;;;4997180;28;20042;-53
2023/05/08 07:43:34;;;;;;;3.65;2.50;;;;;;;;;;5015000;28;20034;-53
2023/05/08 07:45:59;;;;;;;2.25;2.13;;;;;;;;;;4997422;28;20103;-53
2023/05/08 07:48:25;;;;;;;3.60;2.72;;;;;;;;;;5014978;28;20400;-53
2023/05/08 07:50:50;;;;;;;2.60;2.40;;;;;;;;;;5014618;28;20457;-53
2023/05/08 07:53:16;;;;;;;3.15;2.95;;;;;;;;;;5014581;28;20029;-53
2023/05/08 07:55:41;;;;;;;3.88;3.28;;;;;;;;;;5013203;28;20507;-53
2023/05/08 07:58:06;;;;;;;4.32;4.05;;;;;;;;;;5014783;28;20037;-53
2023/05/08 08:00:32;;;;;;;3.28;2.80;;;;;;;;;;5014480;28;20034;-53
2023/05/08 08:02:57;;;;;;;2.38;2.22;;;;;;;;;;5014421;28;20036;-53
2023/05/08 08:05:22;;;;;;;3.45;2.47;;;;;;;;;;5014685;28;20034;-53
2023/05/08 08:07:47;;;;;;;2.88;2.50;;;;;;;;;;5014359;28;20388;-53
2023/05/08 08:10:13;;;;;;;2.67;2.30;;;;;;;;;;5014537;28;20030;-53
2023/05/08 08:12:38;;;;;;;3.45;2.42;;;;;;;;;;4996723;28;20057;-53
2023/05/08 08:15:04;;;;;;;5.57;3.50;;;;;;;;;;5014428;28;20026;-53
2023/05/08 08:17:30;;;;;;;2.92;2.72;;;;;;;;;;5014739;28;20060;-53
2023/05/08 08:19:55;;;;;;;4.47;2.45;;;;;;;;;;5014740;28;20080;-53
2023/05/08 08:22:21;;;;;;;2.60;2.40;;;;;;;;;;5014147;28;20037;-53
2023/05/08 08:24:46;;;;;;;2.50;2.30;;;;;;;;;;5014397;28;20380;-54
2023/05/08 08:27:12;;;;;;;2.15;2.03;;;;;;;;;;5014167;28;20061;-53
2023/05/08 08:29:37;;;;;;;2.25;2.05;;;;;;;;;;5013836;28;20357;-53
2023/05/08 08:32:02;;;;;;;1.95;1.85;;;;;;;;;;5014300;28;20092;-53
2023/05/08 08:34:28;;;;;;;2.95;2.17;;;;;;;;;;5014185;28;20053;-53
2023/05/08 08:36:53;;;;;;;3.20;2.50;;;;;;;;;;5013986;28;20512;-53
2023/05/08 08:39:19;;;;;;;2.97;2.78;;;;;;;;;;5014053;28;20045;-53
2023/05/08 08:41:44;;;;;;;2.33;2.22;;;;;;;;;;5014210;28;20045;-53
2023/05/08 08:44:09;;;;;;;2.60;2.40;;;;;;;;;;5014471;28;20113;-53
2023/05/08 08:46:37;;;;;;;3.55;2.30;;;;;;;;;;5014134;28;20117;-53
2023/05/08 08:49:03;;;;;;;2.30;2.10;;;;;;;;;;5014125;28;20030;-53
2023/05/08 08:51:28;;;;;;;2.35;1.80;;;;;;;;;;5013849;28;20040;-53
2023/05/08 08:54:02;;;;;;;2.38;2.17;;;;;;;;;;5013811;28;20404;-53
2023/05/08 08:56:28;;;;;;;2.65;2.13;;;;;;;;;;5013963;28;20088;-53
2023/05/08 08:58:55;;;;;;;4.90;1.90;;;;;;;;;;5013997;28;20379;-53
2023/05/08 09:01:20;;;;;;;2.65;2.42;;;;;;;;;;5013705;28;20129;-53
2023/05/08 09:03:46;;;;;;;2.20;2.10;;;;;;;;;;5014006;28;20057;-53
2023/05/08 09:06:12;;;;;;;2.60;2.40;;;;;;;;;;5013667;28;20104;-53
2023/05/08 09:08:39;;;;;;;1.98;1.88;;;;;;;;;;5014170;28;20406;-53
2023/05/08 09:11:04;;;;;;;2.72;2.50;;;;;;;;;;5013634;28;20057;-53
2023/05/08 09:13:29;;;;;;;2.58;2.38;;;;;;;;;;5014124;28;20076;-53
2023/05/08 09:15:56;;;;;;;1.70;1.60;;;;;;;;;;5013524;28;20058;-53
2023/05/08 09:18:21;;;;;;;2.45;1.90;;;;;;;;;;5013565;28;20025;-53
2023/05/08 09:20:48;;;;;;;3.38;1.88;;;;;;;;;;5013551;28;20392;-53
2023/05/08 09:23:16;;;;;;;2.22;2.00;;;;;;;;;;5013513;28;20079;-53
2023/05/08 09:25:45;;;;;;;2.63;2.50;;;;;;;;;;5013778;28;20400;-53
2023/05/08 09:28:20;;;;;;;6.97;2.38;;;;;;;;;;5013766;28;20030;-53
2023/05/08 09:30:52;;;;;;;3.60;2.30;;;;;;;;;;5013466;28;20130;-53
2023/05/08 09:33:18;;;;;;;2.75;2.30;;;;;;;;;;5013678;28;20046;-54
2023/05/08 09:35:44;;;;;;;2.85;2.65;;;;;;;;;;5013558;28;20034;-53
2023/05/08 09:38:29;;;;;;;2.17;1.98;;;;;;;;;;5012140;28;20040;-53
2023/05/08 09:41:13;;;;;;;3.10;2.50;;;;;;;;;;5015327;28;20038;-53
2023/05/08 09:43:38;;;;;;;2.72;2.50;;;;;;;;;;5017277;28;20026;-53
2023/05/08 09:46:23;;;;;;;4.90;2.58;;;;;;;;;;5016940;28;20022;-53
2023/05/08 09:48:49;;;;;;;2.60;2.40;;;;;;;;;;5017468;28;20449;-53
2023/05/08 09:51:15;;;;;;;3.20;2.30;;;;;;;;;;5016855;28;20041;-53
2023/05/08 09:53:40;;;;;;;2.90;2.70;;;;;;;;;;5016793;28;20034;-53
2023/05/08 09:56:05;;;;;;;2.70;2.50;;;;;;;;;;4999181;28;20073;-53
2023/05/08 09:58:41;;;;;;;2.17;2.08;;;;;;;;;;5016705;28;20108;-53
2023/05/08 10:01:07;;;;;;;2.50;2.38;;;;;;;;;;4999215;28;20029;-53
2023/05/08 10:03:45;;;;;;;2.30;2.10;;;;;;;;;;5016907;28;20024;-53
2023/05/08 10:06:12;;;;;;;2.25;2.00;;;;;;;;;;5016580;28;20483;-53
2023/05/08 10:08:37;;;;;;;4.13;3.70;;;;;;;;;;5016565;28;20084;-53
2023/05/08 10:11:16;;;;;;;6.07;4.63;;;;;;;;;;5016740;28;20026;-53
2023/05/08 10:13:42;;;;;;;3.33;3.13;;;;;;;;;;5016719;28;20461;-53
2023/05/08 10:16:10;;;;;;;2.88;2.33;;;;;;;;;;5016324;28;20380;-53
2023/05/08 10:18:36;;;;;;;3.38;2.33;;;;;;;;;;5016901;28;20034;-53
2023/05/08 10:21:05;;;;;;;3.08;2.88;;;;;;;;;;5016311;28;20022;-53
2023/05/08 10:23:32;;;;;;;4.45;2.70;;;;;;;;;;5015109;28;20026;-53
2023/05/08 10:25:59;;;;;;;3.58;2.78;;;;;;;;;;5016787;28;20109;-53
2023/05/08 10:28:30;;;;;;;2.70;2.50;;;;;;;;;;5016179;28;20555;-53
2023/05/08 10:30:59;;;;;;;8.82;3.90;;;;;;;;;;5016135;28;20399;-53
2023/05/08 10:33:28;;;;;;;4.43;2.67;;;;;;;;;;5016357;28;20017;-53
2023/05/08 10:35:53;;;;;;;2.83;2.30;;;;;;;;;;5015997;28;20037;-53
2023/05/08 10:38:19;;;;;;;5.88;3.80;;;;;;;;;;5016002;28;20037;-53
2023/05/08 10:40:45;;;;;;;5.35;3.67;;;;;;;;;;5015945;28;20042;-53
2023/05/08 10:43:10;;;;;;;5.68;3.47;;;;;;;;;;5016175;28;20424;-53
2023/05/08 10:45:36;;;;;;;2.30;2.10;;;;;;;;;;5016134;28;20049;-53
2023/05/08 10:48:04;;;;;;;4.18;3.60;;;;;;;;;;5016626;28;20384;-53
2023/05/08 10:50:45;;;;;;;4.75;2.65;;;;;;;;;;5015586;28;20038;-53
2023/05/08 10:53:19;;;;;;;3.30;2.33;;;;;;;;;;5015944;28;20038;-53
2023/05/08 10:55:46;;;;;;;3.28;2.53;;;;;;;;;;5015853;28;20469;-53
2023/05/08 10:58:13;;;;;;;3.55;2.83;;;;;;;;;;5016155;28;20062;-53
2023/05/08 11:00:48;;;;;;;2.80;2.60;;;;;;;;;;5016109;28;20037;-53
2023/05/08 11:03:15;;;;;;;2.72;2.45;;;;;;;;;;5015779;28;20030;-53
2023/05/08 11:05:47;;;;;;;2.05;1.85;;;;;;;;;;4998218;28;20046;-53
2023/05/08 11:08:14;;;;;;;1.60;1.50;;;;;;;;;;5015929;28;20033;-53
2023/05/08 11:10:40;;;;;;;2.50;2.30;;;;;;;;;;5015395;28;20101;-53
2023/05/08 11:13:06;;;;;;;3.60;2.95;;;;;;;;;;5015645;28;20431;-53
2023/05/08 11:15:38;;;;;;;4.45;2.28;;;;;;;;;;5015224;28;20030;-53
2023/05/08 11:18:15;;;;;;;2.80;1.67;;;;;;;;;;5015513;28;20017;-53
2023/05/08 11:20:41;;;;;;;2.38;2.17;;;;;;;;;;4997640;28;20030;-53
2023/05/08 11:23:25;;;;;;;1.80;1.70;;;;;;;;;;5015429;28;20014;-53
2023/05/08 11:25:57;;;;;;;2.10;2.00;;;;;;;;;;5015091;28;20042;-53
2023/05/08 11:28:22;;;;;;;3.50;2.30;;;;;;;;;;5015403;28;20021;-53
2023/05/08 11:30:51;;;;;;;4.45;2.78;;;;;;;;;;5015274;28;20037;-53
2023/05/08 11:33:18;;;;;;;3.92;3.08;;;;;;;;;;4997433;28;20030;-53
2023/05/08 11:35:43;;;;;;;4.10;1.80;;;;;;;;;;5015107;28;20030;-53
2023/05/08 11:38:22;;;;;;;2.70;2.40;;;;;;;;;;5015156;28;20088;-53
2023/05/08 11:40:48;;;;;;;3.78;2.05;;;;;;;;;;5015250;28;20156;-53
2023/05/08 11:43:37;;;;;;;2.92;1.80;;;;;;;;;;5014794;28;20065;-53
2023/05/08 11:46:03;;;;;;;2.00;1.90;;;;;;;;;;5015130;28;20084;-53
2023/05/08 11:48:29;;;;;;;4.72;2.03;;;;;;;;;;5014975;28;20025;-53
2023/05/08 11:50:55;;;;;;;4.07;1.80;;;;;;;;;;5014658;28;20037;-53
2023/05/08 11:53:20;;;;;;;1.60;1.50;;;;;;;;;;5015173;28;20127;-53
2023/05/08 11:55:49;;;;;;;1.83;1.50;;;;;;;;;;4996918;28;20032;-53
2023/05/08 11:58:15;;;;;;;3.17;2.42;;;;;;;;;;5013268;28;20066;-53
2023/05/08 12:00:43;;;;;;;2.00;1.50;;;;;;;;;;5014469;28;20465;-53
2023/05/08 12:03:10;;;;;;;2.38;1.60;;;;;;;;;;5013732;28;20038;-53
2023/05/08 12:05:35;;;;;;;2.33;1.30;;;;;;;;;;5014401;28;20065;-53
2023/05/08 12:08:03;;;;;;;2.35;1.95;;;;;;;;;;5014589;28;20096;-53
2023/05/08 12:10:28;;;;;;;4.80;2.85;;;;;;;;;;5014311;28;20041;-53
2023/05/08 12:12:53;;;;;;;4.28;3.17;;;;;;;;;;5014281;28;20038;-53
2023/05/08 12:15:18;;;;;;;1.83;1.73;;;;;;;;;;5014427;28;20040;-53
2023/05/08 12:17:44;;;;;;;2.55;2.08;;;;;;;;;;5014201;28;20083;-53
2023/05/08 12:20:13;;;;;;;1.75;1.65;;;;;;;;;;5014209;28;20053;-53
2023/05/08 12:22:39;;;;;;;1.90;1.80;;;;;;;;;;5014706;28;20026;-53
2023/05/08 12:25:08;;;;;;;3.38;2.17;;;;;;;;;;5014097;28;20038;-53
2023/05/08 12:27:35;;;;;;;2.70;1.90;;;;;;;;;;5014092;28;20033;-53
2023/05/08 12:30:04;;;;;;;1.55;1.40;;;;;;;;;;5014078;28;20403;-53
2023/05/08 12:32:29;;;;;;;1.70;1.60;;;;;;;;;;5014068;28;20095;-53
2023/05/08 12:34:54;;;;;;;1.50;1.40;;;;;;;;;;5014187;28;20034;-53
2023/05/08 12:37:25;;;;;;;2.97;2.40;;;;;;;;;;5014265;28;20017;-53
2023/05/08 12:39:50;;;;;;;2.70;2.50;;;;;;;;;;5014092;28;20050;-53
2023/05/08 12:42:16;;;;;;;3.20;2.70;;;;;;;;;;5013933;28;20026;-53
2023/05/08 12:44:48;;;;;;;2.47;2.05;;;;;;;;;;5013825;28;20155;-53
2023/05/08 12:47:14;;;;;;;2.38;1.70;;;;;;;;;;5013871;28;20030;-53
2023/05/08 12:49:39;;;;;;;3.08;1.50;;;;;;;;;;5013831;28;20049;-53
2023/05/08 12:52:07;;;;;;;2.28;1.95;;;;;;;;;;5013845;28;20113;-53
2023/05/08 12:54:35;;;;;;;1.65;1.55;;;;;;;;;;5013987;28;20524;-53
2023/05/08 12:57:00;;;;;;;4.68;1.65;;;;;;;;;;5013754;28;20113;-53
2023/05/08 12:59:30;;;;;;;2.58;1.80;;;;;;;;;;5013767;28;20101;-53
2023/05/08 13:01:56;;;;;;;;;;;;;;;;;;5014387;28;20034;-53
2023/05/08 13:04:21;;;;;;;3.27;1.80;;;;;;;;;;5013716;28;19909;-53
2023/05/08 13:06:53;;;;;;;2.40;1.38;;;;;;;;;;5013960;28;20481;-53
2023/05/08 13:09:18;;;;;;;2.17;1.58;;;;;;;;;;5014200;28;20054;-53
2023/05/08 13:11:44;;;;;;;1.73;1.50;;;;;;;;;;5013661;28;20463;-53
2023/05/08 13:14:09;;;;;;;1.67;1.58;;;;;;;;;;5015032;28;20042;-53
2023/05/08 13:16:46;;;;;;;2.10;1.73;;;;;;;;;;5018020;28;20030;-53
2023/05/08 13:19:14;;;;;;;2.17;1.83;;;;;;;;;;5017470;28;20034;-53
2023/05/08 13:21:39;;;;;;;2.63;1.63;;;;;;;;;;5017426;28;20069;-53
2023/05/08 13:24:05;;;;;;;2.30;2.10;;;;;;;;;;5017362;28;20072;-53
2023/05/08 13:26:30;;;;;;;2.33;2.13;;;;;;;;;;5017576;28;20083;-53
2023/05/08 13:28:55;;;;;;;2.75;1.60;;;;;;;;;;5017289;28;20125;-53
2023/05/08 13:31:20;;;;;;;2.10;1.90;;;;;;;;;;5017509;28;20034;-53
2023/05/08 13:33:46;;;;;;;2.33;1.80;;;;;;;;;;5016320;28;20112;-53
2023/05/08 13:36:11;;;;;;;2.53;2.03;;;;;;;;;;5016838;28;20030;-53
2023/05/08 13:38:36;;;;;;;2.83;1.83;;;;;;;;;;5016827;28;20116;-53
2023/05/08 13:41:02;;;;;;;1.42;1.33;;;;;;;;;;5016322;28;20457;-53
2023/05/08 13:43:27;;;;;;;1.83;1.73;;;;;;;;;;5016791;28;20034;-53
2023/05/08 13:45:52;;;;;;;2.15;1.58;;;;;;;;;;5014731;28;20034;-53
2023/05/08 13:48:18;;;;;;;1.70;1.60;;;;;;;;;;5016104;28;20044;-53
2023/05/08 13:50:44;;;;;;;12.02;6.60;;;;;;;;;;5016506;28;20523;-53
2023/05/08 13:53:09;;;;;;;8.93;6.50;;;;;;;;;;5016657;28;20028;-53
2023/05/08 13:55:35;;;;;;;4.20;3.65;;;;;;;;;;4998608;28;20048;-53
2023/05/08 13:58:00;;;;;;;7.35;6.68;;;;;;;;;;5016268;28;20033;-53
2023/05/08 14:00:25;;;;;;;15.25;13.75;;;;;;;;;;5016021;28;20057;-53
2023/05/08 14:02:52;;;;;;;18.60;16.58;;;;;;;;;;5016302;28;20053;-53
2023/05/08 14:05:17;;;;;;;4.72;3.15;;;;;;;;;;5016949;28;20038;-53
2023/05/08 14:07:44;;;;;;;2.90;2.70;;;;;;;;;;5017153;28;20471;-53
2023/05/08 14:10:10;;;;;;;1.95;1.85;;;;;;;;;;5017035;28;20038;-54
2023/05/08 14:12:36;;;;;;;2.47;2.17;;;;;;;;;;4999340;28;20045;-53
2023/05/08 14:15:04;;;;;;;2.15;1.90;;;;;;;;;;5016586;28;20029;-53
2023/05/08 14:17:30;;;;;;;2.13;1.92;;;;;;;;;;5016708;28;20384;-53
2023/05/08 14:19:55;;;;;;;2.30;2.10;;;;;;;;;;5016341;28;20038;-53
2023/05/08 14:22:20;;;;;;;1.40;1.30;;;;;;;;;;5016712;28;20029;-53
2023/05/08 14:24:46;;;;;;;1.65;1.55;;;;;;;;;;4998873;28;20105;-53
2023/05/08 14:27:12;;;;;;;6.70;3.85;;;;;;;;;;4997469;28;20383;-53
2023/05/08 14:29:37;;;;;;;6.18;4.32;;;;;;;;;;5015613;28;20022;-53
2023/05/08 14:32:04;;;;;;;26.48;22.58;;;;;;;;;;5016242;28;20026;-53
2023/05/08 14:34:29;;;;;;;40.42;30.40;;;;;;;;;;5016173;28;20117;-53
2023/05/08 14:36:54;;;;;;;36.40;27.83;;;;;;;;;;5016155;28;20124;-53
2023/05/08 14:39:20;;;;;;;22.08;16.08;;;;;;;;;;5016143;28;20053;-54
2023/05/08 14:41:45;;;;;;;14.05;8.82;;;;;;;;;;4998704;28;20030;-53
2023/05/08 14:44:11;;;;;;;16.45;10.68;;;;;;;;;;5015994;28;20030;-53